Time;durP1;ratioP1;P1;durP2;ratioP2;P2;SDS_P1;SDS_P2;PMS_P1;PMS_P2;Temp;Humidity;BMP_temperature;BMP_pressure;BME280_temperature;BME280_humidity;BME280_pressure;Samples;Min_cycle;Max_cycle;Signal;HPM_P1;HPM_P2
2021/09/22 00:05:23;;;;;;;12.65;8.15;;;13.10;99.90;;;;;;12515177;28;20159;-35
2021/09/22 00:11:25;;;;;;;13.98;9.45;;;13.10;99.90;;;;;;12523196;28;20192;-36
2021/09/22 00:17:27;;;;;;;13.20;9.23;;;13.20;99.90;;;;;;12526417;28;20494;-34
2021/09/22 00:23:29;;;;;;;13.45;9.35;;;13.20;99.90;;;;;;12525538;28;20098;-36
2021/09/22 00:29:31;;;;;;;14.73;10.20;;;13.00;99.90;;;;;;12527247;28;20106;-35
2021/09/22 00:35:34;;;;;;;16.73;10.90;;;13.00;99.90;;;;;;12523643;28;20052;-39
2021/09/22 00:41:36;;;;;;;15.50;10.63;;;12.90;99.90;;;;;;12526939;28;20135;-39
2021/09/22 00:47:40;;;;;;;15.05;10.55;;;12.80;99.90;;;;;;12523447;28;20132;-35
2021/09/22 00:53:42;;;;;;;17.33;12.63;;;12.80;99.90;;;;;;12523496;28;20175;-35
2021/09/22 00:59:44;;;;;;;19.65;12.10;;;12.80;99.90;;;;;;12522550;28;20192;-39
2021/09/22 01:05:47;;;;;;;17.38;12.90;;;12.70;99.90;;;;;;12522297;28;20072;-35
2021/09/22 01:11:50;;;;;;;19.63;13.32;;;12.70;99.90;;;;;;12525215;28;20127;-38
2021/09/22 01:17:52;;;;;;;18.13;13.27;;;12.80;99.90;;;;;;12522945;28;20156;-38
2021/09/22 01:23:54;;;;;;;21.52;14.30;;;12.80;99.90;;;;;;12518513;28;20163;-39
2021/09/22 01:29:55;;;;;;;19.92;14.15;;;12.80;99.90;;;;;;12521438;28;20781;-39
2021/09/22 01:35:57;;;;;;;20.48;14.15;;;12.70;99.90;;;;;;12522640;28;20544;-38
2021/09/22 01:41:59;;;;;;;20.30;14.48;;;12.70;99.90;;;;;;12524048;28;20052;-40
2021/09/22 01:48:05;;;;;;;20.58;14.95;;;12.80;99.90;;;;;;12519851;28;20056;-35
2021/09/22 01:54:07;;;;;;;23.10;15.90;;;12.80;99.90;;;;;;12510229;28;20693;-39
2021/09/22 02:00:09;;;;;;;24.95;16.23;;;12.80;99.90;;;;;;12519739;28;20098;-39
2021/09/22 02:06:12;;;;;;;27.17;15.85;;;12.80;99.90;;;;;;12520241;28;20041;-39
2021/09/22 02:12:14;;;;;;;26.50;16.42;;;12.70;99.90;;;;;;12519466;28;20045;-35
2021/09/22 02:18:15;;;;;;;26.73;16.25;;;12.70;99.90;;;;;;12516653;28;20052;-35
2021/09/22 02:24:19;;;;;;;26.90;17.35;;;12.60;99.90;;;;;;12516505;28;20055;-38
2021/09/22 02:30:22;;;;;;;24.13;17.77;;;12.70;99.90;;;;;;12514351;28;20045;-39
2021/09/22 02:36:25;;;;;;;25.90;17.42;;;12.70;99.90;;;;;;12516959;28;20076;-38
2021/09/22 02:42:27;;;;;;;25.52;17.25;;;12.70;99.90;;;;;;12513251;28;20102;-35
2021/09/22 02:48:29;;;;;;;31.13;18.52;;;12.70;99.90;;;;;;12515778;28;20091;-39
2021/09/22 02:54:31;;;;;;;26.52;17.98;;;12.70;99.90;;;;;;12513637;28;20045;-39
2021/09/22 03:00:32;;;;;;;31.13;18.60;;;12.80;99.90;;;;;;12516942;28;20056;-41
2021/09/22 03:06:34;;;;;;;30.42;18.50;;;12.70;99.90;;;;;;12523251;28;20678;-36
2021/09/22 03:12:36;;;;;;;28.33;19.15;;;12.70;99.90;;;;;;12518556;28;20199;-35
2021/09/22 03:18:38;;;;;;;28.83;18.88;;;12.80;99.90;;;;;;12515782;28;20770;-35
2021/09/22 03:24:40;;;;;;;28.42;19.17;;;12.70;99.90;;;;;;12516772;28;20041;-35
2021/09/22 03:30:42;;;;;;;30.88;20.70;;;12.80;99.90;;;;;;12521723;28;20044;-39
2021/09/22 03:36:44;;;;;;;28.15;20.63;;;12.70;99.90;;;;;;12520349;28;20522;-39
2021/09/22 03:42:46;;;;;;;31.35;20.33;;;12.70;99.90;;;;;;12521081;28;20048;-35
2021/09/22 03:48:47;;;;;;;31.15;21.55;;;12.70;99.90;;;;;;12515906;28;20292;-39
2021/09/22 03:54:49;;;;;;;31.52;20.02;;;12.60;99.90;;;;;;12515459;28;20049;-38
2021/09/22 04:00:51;;;;;;;33.65;21.52;;;12.80;99.90;;;;;;12517083;28;20045;-38
2021/09/22 04:06:53;;;;;;;29.17;20.95;;;12.70;99.90;;;;;;12516907;28;20095;-38
2021/09/22 04:12:58;;;;;;;33.17;21.83;;;12.70;99.90;;;;;;12518255;28;20045;-35
2021/09/22 04:19:00;;;;;;;34.83;21.85;;;12.80;99.90;;;;;;12516718;28;20053;-36
2021/09/22 04:25:02;;;;;;;30.63;22.17;;;12.80;99.90;;;;;;12518160;28;20745;-35
2021/09/22 04:31:05;;;;;;;32.70;22.02;;;12.80;99.90;;;;;;12518907;28;20896;-39
2021/09/22 04:37:07;;;;;;;36.10;22.90;;;12.70;99.90;;;;;;12518147;28;20063;-39
2021/09/22 04:43:09;;;;;;;37.20;22.08;;;12.70;99.90;;;;;;12517887;28;20747;-37
2021/09/22 04:49:11;;;;;;;38.50;23.00;;;12.80;99.90;;;;;;12515289;28;20048;-39
2021/09/22 04:55:13;;;;;;;31.67;22.10;;;12.80;99.90;;;;;;12517043;28;20406;-35
2021/09/22 05:01:15;;;;;;;36.45;22.55;;;12.80;99.90;;;;;;12522093;28;20076;-39
2021/09/22 05:07:17;;;;;;;37.03;22.77;;;12.70;99.90;;;;;;12521988;28;20049;-38
2021/09/22 05:13:21;;;;;;;39.85;21.42;;;12.70;99.90;;;;;;12522873;28;20126;-35
2021/09/22 05:19:22;;;;;;;37.83;22.73;;;12.80;99.90;;;;;;12527336;28;20045;-39
2021/09/22 05:25:24;;;;;;;36.55;22.20;;;12.70;99.90;;;;;;12524334;28;20497;-35
2021/09/22 05:31:27;;;;;;;36.72;22.35;;;12.70;99.90;;;;;;12524774;28;20136;-39
2021/09/22 05:37:30;;;;;;;31.27;20.60;;;12.70;99.90;;;;;;12525043;28;20083;-35
2021/09/22 05:43:33;;;;;;;33.17;19.83;;;12.80;99.90;;;;;;12522540;28;20059;-35
2021/09/22 05:49:35;;;;;;;30.67;19.67;;;12.70;99.90;;;;;;12526336;28;20041;-40
2021/09/22 05:55:38;;;;;;;28.95;19.33;;;12.80;99.90;;;;;;12523903;28;20063;-38
2021/09/22 06:01:40;;;;;;;29.48;19.40;;;12.90;99.90;;;;;;12524250;28;20048;-40
2021/09/22 06:07:46;;;;;;;28.85;18.65;;;12.80;99.90;;;;;;12522804;28;20053;-35
2021/09/22 06:13:52;;;;;;;33.78;19.00;;;12.90;99.90;;;;;;12520033;28;20208;-39
2021/09/22 06:19:54;;;;;;;31.20;19.63;;;12.80;99.90;;;;;;12520154;28;20049;-39
2021/09/22 06:25:56;;;;;;;30.63;18.02;;;13.00;99.90;;;;;;12523053;28;20053;-39
2021/09/22 06:31:59;;;;;;;26.38;18.17;;;13.00;99.90;;;;;;12522303;28;20136;-37
2021/09/22 06:38:01;;;;;;;30.60;19.88;;;13.00;99.90;;;;;;12518885;28;20094;-40
2021/09/22 06:44:03;;;;;;;30.83;19.65;;;13.00;99.90;;;;;;12522480;28;20076;-35
2021/09/22 06:50:05;;;;;;;30.23;18.45;;;13.10;99.90;;;;;;12523796;28;20911;-39
2021/09/22 06:56:07;;;;;;;32.83;20.50;;;13.10;99.90;;;;;;12519617;28;20059;-35
2021/09/22 07:02:09;;;;;;;29.85;19.83;;;13.10;99.90;;;;;;12519887;28;20055;-38
2021/09/22 07:08:12;;;;;;;35.55;22.48;;;13.20;99.90;;;;;;12517961;28;20059;-39
2021/09/22 07:14:13;;;;;;;33.30;20.63;;;13.30;99.90;;;;;;12520111;28;20049;-35
2021/09/22 07:20:16;;;;;;;33.65;20.85;;;13.40;99.90;;;;;;12517655;28;21009;-35
2021/09/22 07:26:17;;;;;;;42.53;24.60;;;13.30;99.90;;;;;;12516921;28;20049;-39
2021/09/22 07:32:20;;;;;;;44.70;24.30;;;13.20;99.90;;;;;;12517742;28;20052;-39
2021/09/22 07:38:22;;;;;;;53.55;26.38;;;13.30;99.90;;;;;;12519619;28;20056;-39
2021/09/22 07:44:24;;;;;;;52.95;27.38;;;13.40;99.90;;;;;;12518440;28;20082;-35
2021/09/22 07:50:26;;;;;;;47.00;25.63;;;13.30;99.90;;;;;;12516292;28;20456;-35
2021/09/22 07:56:28;;;;;;;39.67;22.70;;;13.40;99.90;;;;;;12519723;28;20490;-36
2021/09/22 08:02:30;;;;;;;33.80;21.75;;;13.40;99.90;;;;;;12515956;28;20453;-35
2021/09/22 08:08:32;;;;;;;33.95;22.98;;;13.40;99.90;;;;;;12517769;28;20041;-35
2021/09/22 08:14:35;;;;;;;36.53;22.48;;;13.60;99.90;;;;;;12515376;28;20060;-40
2021/09/22 08:20:37;;;;;;;34.75;22.92;;;13.70;99.90;;;;;;12521181;28;20169;-39
2021/09/22 08:26:39;;;;;;;38.38;22.52;;;13.80;99.90;;;;;;12516375;28;20048;-35
2021/09/22 08:32:42;;;;;;;32.83;22.60;;;13.90;99.90;;;;;;12526442;28;20482;-35
2021/09/22 08:38:44;;;;;;;33.47;21.08;;;14.10;99.90;;;;;;12529586;28;20048;-40
2021/09/22 08:44:49;;;;;;;30.92;21.98;;;14.20;99.90;;;;;;12525526;28;20049;-39
2021/09/22 08:50:52;;;;;;;33.63;20.98;;;14.40;99.90;;;;;;12522145;28;20110;-36
2021/09/22 08:56:54;;;;;;;32.08;19.88;;;14.60;99.90;;;;;;12522961;28;20101;-35
2021/09/22 09:02:56;;;;;;;29.75;19.20;;;14.90;99.90;;;;;;12522124;28;20142;-35
2021/09/22 09:09:00;;;;;;;28.90;16.02;;;15.20;99.90;;;;;;12525860;28;20044;-35
2021/09/22 09:15:12;;;;;;;26.00;16.65;;;15.40;99.90;;;;;;12523734;28;20053;-37
2021/09/22 09:21:14;;;;;;;24.17;15.90;;;15.50;99.90;;;;;;12526720;28;20085;-35
2021/09/22 09:27:20;;;;;;;23.10;15.87;;;15.50;99.90;;;;;;12528394;28;20056;-35
2021/09/22 09:33:48;;;;;;;23.75;15.07;;;15.30;99.90;;;;;;12523676;28;20144;-39
2021/09/22 09:39:50;;;;;;;22.48;15.63;;;15.20;99.90;;;;;;12523031;28;20048;-40
2021/09/22 09:45:52;;;;;;;20.77;13.85;;;15.20;99.90;;;;;;12526061;28;20045;-36
2021/09/22 09:51:59;;;;;;;22.80;13.82;;;15.20;99.90;;;;;;12521241;28;20086;-39
2021/09/22 09:58:01;;;;;;;20.90;12.40;;;15.10;99.90;;;;;;12525909;28;20053;-39
2021/09/22 10:04:05;;;;;;;20.77;11.73;;;15.10;99.90;;;;;;12523154;28;20094;-35
2021/09/22 10:10:08;;;;;;;;;;;15.20;99.90;;;;;;12522411;28;20053;-35
2021/09/22 10:16:10;;;;;;;12.80;8.65;;;15.30;99.90;;;;;;12529195;28;20673;-36
2021/09/22 10:22:13;;;;;;;13.93;9.48;;;15.50;99.90;;;;;;12527061;28;20041;-38
2021/09/22 10:28:15;;;;;;;16.50;10.35;;;15.40;99.90;;;;;;12527208;28;20057;-41
2021/09/22 10:34:30;;;;;;;19.33;9.75;;;15.40;99.90;;;;;;12522333;28;20514;-36
2021/09/22 10:40:38;;;;;;;19.85;11.88;;;15.50;99.90;;;;;;12522597;28;20102;-40
2021/09/22 10:46:40;;;;;;;18.00;13.35;;;15.50;99.90;;;;;;12522427;28;20579;-35
2021/09/22 10:52:42;;;;;;;22.98;15.13;;;15.60;99.90;;;;;;12522295;28;20083;-42
2021/09/22 10:58:51;;;;;;;20.48;14.77;;;15.60;99.90;;;;;;12523819;28;20575;-35
2021/09/22 11:05:01;;;;;;;23.95;15.57;;;15.70;99.90;;;;;;12519450;28;20461;-35
2021/09/22 11:11:03;;;;;;;22.60;15.90;;;15.70;99.90;;;;;;12523765;28;20045;-35
2021/09/22 11:17:13;;;;;;;20.60;14.68;;;15.70;99.90;;;;;;12522716;28;20085;-39
2021/09/22 11:23:15;;;;;;;23.15;14.10;;;15.70;99.90;;;;;;12525707;28;20053;-40
2021/09/22 11:29:41;;;;;;;18.58;13.15;;;15.70;99.90;;;;;;12522034;28;20442;-36
2021/09/22 11:35:44;;;;;;;21.23;12.95;;;15.80;99.90;;;;;;12520086;28;20052;-39
2021/09/22 11:41:54;;;;;;;20.27;12.05;;;15.80;99.90;;;;;;12521050;28;20052;-39
2021/09/22 11:47:56;;;;;;;24.15;13.43;;;16.00;99.90;;;;;;12520017;28;20479;-35
2021/09/22 11:53:58;;;;;;;24.45;13.68;;;16.00;99.90;;;;;;12513786;28;20445;-39
2021/09/22 12:00:00;;;;;;;20.63;12.18;;;16.10;99.90;;;;;;12513880;28;20056;-35
2021/09/22 12:06:14;;;;;;;23.65;13.18;;;16.40;99.90;;;;;;12526101;28;20080;-39
2021/09/22 12:12:18;;;;;;;;;;;16.70;99.90;;;;;;12528286;28;20136;-39
2021/09/22 12:18:24;;;;;;;21.27;13.20;;;16.70;99.90;;;;;;12531026;28;19940;-35
2021/09/22 12:24:29;;;;;;;20.98;13.85;;;16.80;99.90;;;;;;12528798;28;20059;-40
2021/09/22 12:30:36;;;;;;;20.30;12.52;;;16.70;99.90;;;;;;12525250;28;20046;-35
2021/09/22 12:36:44;;;;;;;19.25;12.80;;;16.50;99.90;;;;;;12530139;28;20053;-35
2021/09/22 12:42:48;;;;;;;20.15;12.55;;;16.50;99.90;;;;;;12528807;28;20074;-35
2021/09/22 12:48:50;;;;;;;17.73;12.02;;;16.40;99.90;;;;;;12526695;28;20045;-36
2021/09/22 12:54:52;;;;;;;21.40;12.15;;;16.60;99.90;;;;;;12527094;28;20044;-35
2021/09/22 13:00:59;;;;;;;22.35;12.60;;;16.90;99.90;;;;;;12527162;28;20044;-36
2021/09/22 13:07:03;;;;;;;19.40;11.95;;;17.30;99.90;;;;;;12524555;28;20045;-37
2021/09/22 13:13:16;;;;;;;19.37;12.53;;;18.00;99.90;;;;;;12525840;28;20041;-38
2021/09/22 13:19:25;;;;;;;17.65;11.48;;;18.30;99.90;;;;;;12527834;28;20092;-39
2021/09/22 13:25:27;;;;;;;20.27;12.63;;;17.80;99.90;;;;;;12522374;28;20048;-39
2021/09/22 13:31:33;;;;;;;16.70;11.48;;;17.50;99.90;;;;;;12526245;28;20068;-39
2021/09/22 13:37:35;;;;;;;21.83;12.38;;;17.30;99.90;;;;;;12524285;28;20077;-36
2021/09/22 13:43:37;;;;;;;19.25;13.50;;;17.20;99.90;;;;;;12528347;28;20060;-35
2021/09/22 13:49:39;;;;;;;19.17;12.45;;;17.10;99.90;;;;;;12526180;28;20049;-35
2021/09/22 13:55:43;;;;;;;16.02;10.93;;;17.10;99.90;;;;;;12522420;28;20052;-36
2021/09/22 14:01:45;;;;;;;16.50;11.27;;;17.20;99.90;;;;;;12524888;28;20075;-35
2021/09/22 14:07:49;;;;;;;;;;;17.60;99.90;;;;;;12516301;28;20041;-38
2021/09/22 14:13:51;;;;;;;15.10;10.65;;;17.90;99.90;;;;;;12525965;28;19925;-39
2021/09/22 14:19:53;;;;;;;15.93;11.00;;;18.10;99.90;;;;;;12521802;28;21025;-35
2021/09/22 14:25:56;;;;;;;18.23;11.43;;;18.40;99.90;;;;;;12513520;28;20498;-35
2021/09/22 14:31:58;;;;;;;16.30;10.70;;;18.30;99.90;;;;;;12521392;28;20045;-36
2021/09/22 14:38:03;;;;;;;13.95;10.07;;;17.90;99.90;;;;;;12523676;28;20041;-35
2021/09/22 14:44:05;;;;;;;17.60;11.38;;;17.60;99.90;;;;;;12519736;28;20060;-35
2021/09/22 14:50:10;;;;;;;18.58;10.95;;;17.50;99.90;;;;;;12521802;28;20063;-38
2021/09/22 14:56:12;;;;;;;14.93;10.52;;;17.40;99.90;;;;;;12519264;28;20148;-35
2021/09/22 15:02:14;;;;;;;17.08;10.95;;;17.60;99.90;;;;;;12519975;28;20045;-35
2021/09/22 15:08:35;;;;;;;17.77;10.60;;;17.90;99.90;;;;;;12522930;28;20053;-39
2021/09/22 15:14:37;;;;;;;18.85;10.35;;;18.10;99.90;;;;;;12521318;28;20132;-41
2021/09/22 15:20:40;;;;;;;13.32;9.23;;;18.60;99.90;;;;;;12519150;28;20056;-39
2021/09/22 15:26:42;;;;;;;13.25;8.77;;;19.00;99.90;;;;;;12519142;28;20517;-39
2021/09/22 15:32:44;;;;;;;18.02;9.70;;;19.30;99.90;;;;;;12519343;28;21122;-39
2021/09/22 15:38:47;;;;;;;15.32;10.65;;;19.60;99.90;;;;;;12505535;28;20470;-35
2021/09/22 15:44:50;;;;;;;17.40;10.27;;;19.70;99.90;;;;;;12521038;28;20057;-36
2021/09/22 15:50:52;;;;;;;12.83;8.90;;;19.90;99.90;;;;;;12514769;28;20530;-35
2021/09/22 15:56:54;;;;;;;14.52;8.43;;;19.90;99.90;;;;;;12519423;28;20049;-40
2021/09/22 16:02:56;;;;;;;12.38;8.70;;;19.60;99.90;;;;;;12511635;28;20160;-39
2021/09/22 16:08:58;;;;;;;14.20;8.30;;;19.20;99.90;;;;;;12505259;28;20136;-39
2021/09/22 16:15:00;;;;;;;13.35;8.50;;;19.00;99.90;;;;;;12516104;28;20084;-35
2021/09/22 16:21:04;;;;;;;11.88;8.73;;;18.60;99.90;;;;;;12519298;28;20041;-38
2021/09/22 16:27:06;;;;;;;12.88;9.07;;;18.50;99.90;;;;;;12511264;28;20064;-39
2021/09/22 16:33:09;;;;;;;13.13;8.13;;;18.30;99.90;;;;;;12514172;28;20132;-35
2021/09/22 16:39:11;;;;;;;14.73;8.00;;;18.00;99.90;;;;;;12514117;28;20082;-39
2021/09/22 16:45:13;;;;;;;14.73;9.27;;;17.90;99.90;;;;;;12515989;28;20049;-39
2021/09/22 16:51:15;;;;;;;17.15;10.27;;;17.60;99.90;;;;;;12520939;28;20049;-40
2021/09/22 16:57:17;;;;;;;16.73;10.63;;;17.30;99.90;;;;;;12524508;28;20049;-35
2021/09/22 17:03:19;;;;;;;15.85;11.35;;;17.10;99.90;;;;;;12527386;28;20087;-41
2021/09/22 17:09:24;;;;;;;16.05;11.48;;;17.00;99.90;;;;;;12527002;28;20094;-35
2021/09/22 17:15:28;;;;;;;18.92;12.73;;;16.90;99.90;;;;;;12526550;28;20049;-35
2021/09/22 17:21:31;;;;;;;18.17;12.75;;;16.60;99.90;;;;;;12524182;28;20222;-39
2021/09/22 17:27:33;;;;;;;21.88;12.27;;;16.40;99.90;;;;;;12531005;28;20053;-38
2021/09/22 17:33:37;;;;;;;15.10;11.10;;;16.20;99.90;;;;;;12528443;28;20053;-38
2021/09/22 17:39:41;;;;;;;17.73;11.98;;;16.10;99.90;;;;;;12530395;28;20049;-35
2021/09/22 17:45:44;;;;;;;18.25;12.20;;;16.00;99.90;;;;;;12526684;28;20083;-35
2021/09/22 17:51:46;;;;;;;18.20;13.00;;;15.80;99.90;;;;;;12527755;28;20092;-39
2021/09/22 17:57:48;;;;;;;22.83;15.60;;;15.60;99.90;;;;;;12529710;28;20064;-35
2021/09/22 18:03:56;;;;;;;24.88;15.65;;;15.40;99.90;;;;;;12525836;28;20064;-35
2021/09/22 18:09:58;;;;;;;18.88;14.40;;;15.30;99.90;;;;;;12521509;28;20049;-37
2021/09/22 18:16:00;;;;;;;21.85;15.93;;;15.30;99.90;;;;;;12525827;28;20426;-36
2021/09/22 18:22:03;;;;;;;20.92;15.90;;;15.10;99.90;;;;;;12510243;28;20041;-35
2021/09/22 18:28:05;;;;;;;24.73;16.88;;;15.00;99.90;;;;;;12477873;28;20048;-38
2021/09/22 18:34:07;;;;;;;22.40;17.38;;;15.00;99.90;;;;;;12474765;28;20052;-39
2021/09/22 18:40:10;;;;;;;21.65;16.00;;;15.00;99.90;;;;;;12476604;28;20053;-38
2021/09/22 18:46:12;;;;;;;21.40;16.38;;;15.10;99.90;;;;;;12477128;28;20072;-39
2021/09/22 18:52:14;;;;;;;25.65;17.10;;;15.00;99.90;;;;;;12479161;28;20080;-38
2021/09/22 18:58:16;;;;;;;25.92;17.67;;;14.90;99.90;;;;;;12477116;28;20064;-36
2021/09/22 19:04:18;;;;;;;20.23;16.52;;;15.00;99.90;;;;;;12507891;28;20133;-39
2021/09/22 19:10:23;;;;;;;24.70;17.08;;;15.10;99.90;;;;;;12521187;28;20049;-39
2021/09/22 19:16:25;;;;;;;28.00;18.10;;;15.10;99.90;;;;;;12464480;28;20511;-35
2021/09/22 19:22:27;;;;;;;24.45;17.58;;;15.00;99.90;;;;;;12494557;28;20167;-40
2021/09/22 19:28:29;;;;;;;26.38;17.63;;;14.90;99.90;;;;;;12519168;28;20049;-38
2021/09/22 19:34:31;;;;;;;21.15;18.13;;;14.90;99.90;;;;;;12524347;28;20064;-38
2021/09/22 19:40:34;;;;;;;23.58;16.60;;;15.00;99.90;;;;;;12520686;28;20475;-35
2021/09/22 19:46:36;;;;;;;21.67;15.77;;;14.90;99.90;;;;;;12518889;28;20088;-39
2021/09/22 19:52:39;;;;;;;22.02;15.68;;;14.80;99.90;;;;;;12524161;28;20053;-38
2021/09/22 19:58:43;;;;;;;21.57;16.20;;;14.80;99.90;;;;;;12521143;28;20099;-38
2021/09/22 20:04:45;;;;;;;20.93;15.50;;;14.90;99.90;;;;;;12524143;28;20327;-35
2021/09/22 20:10:47;;;;;;;19.55;14.98;;;14.80;99.90;;;;;;12524712;28;20079;-40
2021/09/22 20:16:50;;;;;;;20.85;14.73;;;14.80;99.90;;;;;;12519931;28;20061;-38
2021/09/22 20:22:52;;;;;;;21.40;15.77;;;14.80;99.90;;;;;;12524733;28;20736;-39
2021/09/22 20:28:54;;;;;;;21.85;14.90;;;14.80;99.90;;;;;;12531462;28;20057;-35
2021/09/22 20:34:56;;;;;;;22.88;15.93;;;14.80;99.90;;;;;;12527644;28;20056;-38
2021/09/22 20:40:58;;;;;;;21.95;15.75;;;14.70;99.90;;;;;;12530936;28;20072;-39
2021/09/22 20:47:02;;;;;;;21.85;15.93;;;14.70;99.90;;;;;;12533270;28;20060;-35
2021/09/22 20:53:04;;;;;;;22.90;15.48;;;14.60;99.90;;;;;;12528604;28;20501;-39
2021/09/22 20:59:07;;;;;;;25.88;15.13;;;14.70;99.90;;;;;;12529403;28;20053;-39
2021/09/22 21:05:09;;;;;;;23.58;14.80;;;14.60;99.90;;;;;;12545291;28;20834;-39
2021/09/22 21:11:11;;;;;;;24.90;16.05;;;14.50;99.90;;;;;;12525810;28;20087;-34
2021/09/22 21:17:17;;;;;;;20.95;15.73;;;14.30;99.90;;;;;;12528249;28;20049;-35
2021/09/22 21:23:19;;;;;;;25.17;16.63;;;14.30;99.90;;;;;;12525496;28;21195;-34
2021/09/22 21:29:21;;;;;;;25.08;16.33;;;14.30;99.90;;;;;;12531138;28;20056;-38
2021/09/22 21:35:26;;;;;;;23.02;16.05;;;14.20;99.90;;;;;;12524887;28;20550;-38
2021/09/22 21:41:28;;;;;;;22.27;16.88;;;14.10;99.90;;;;;;12529049;28;20049;-35
2021/09/22 21:47:30;;;;;;;27.38;17.20;;;14.10;99.90;;;;;;12530439;28;20056;-39
2021/09/22 21:53:33;;;;;;;23.40;17.17;;;14.10;99.90;;;;;;12527548;28;20151;-35
2021/09/22 21:59:35;;;;;;;25.73;16.75;;;14.10;99.90;;;;;;12524602;28;20083;-38
2021/09/22 22:05:36;;;;;;;27.35;17.92;;;14.10;99.90;;;;;;12522448;28;20056;-35
2021/09/22 22:11:39;;;;;;;28.77;18.02;;;14.10;99.90;;;;;;12523656;28;20049;-35
2021/09/22 22:17:41;;;;;;;26.42;17.52;;;14.10;99.90;;;;;;12529066;28;20064;-39
2021/09/22 22:23:44;;;;;;;26.20;17.30;;;14.00;99.90;;;;;;12524553;28;20045;-35
2021/09/22 22:29:46;;;;;;;26.73;18.20;;;14.00;99.90;;;;;;12525651;28;20084;-38
2021/09/22 22:35:48;;;;;;;26.35;17.23;;;14.00;99.90;;;;;;12523501;28;20052;-38
2021/09/22 22:41:51;;;;;;;26.40;17.13;;;13.90;99.90;;;;;;12525542;28;20052;-38
2021/09/22 22:47:53;;;;;;;26.70;18.35;;;13.70;99.90;;;;;;12524073;28;20044;-38
2021/09/22 22:53:55;;;;;;;27.55;17.90;;;13.60;99.90;;;;;;12522753;28;20045;-38
2021/09/22 22:59:57;;;;;;;26.52;17.98;;;13.60;99.90;;;;;;12526679;28;20049;-39
2021/09/22 23:06:04;;;;;;;25.00;17.30;;;13.60;99.90;;;;;;12520598;28;20049;-38
2021/09/22 23:12:07;;;;;;;24.65;17.02;;;13.60;99.90;;;;;;12521586;28;20055;-40
2021/09/22 23:24:25;;;;;;;30.42;19.10;;;13.40;99.90;;;;;;12521840;28;20525;-39
2021/09/22 23:30:27;;;;;;;27.60;19.35;;;13.30;99.90;;;;;;12525545;28;20576;-39
2021/09/22 23:36:29;;;;;;;27.73;18.17;;;13.20;99.90;;;;;;12525728;28;20183;-39
2021/09/22 23:42:32;;;;;;;28.67;18.50;;;13.30;99.90;;;;;;12521475;28;20430;-38
2021/09/22 23:48:33;;;;;;;30.40;18.67;;;13.10;99.90;;;;;;12527090;28;20044;-39
2021/09/22 23:54:36;;;;;;;27.67;19.15;;;13.10;99.90;;;;;;12522065;28;20106;-37
